WetterOnline ( https://www.wetteronline.de )

Wetter aktuell Gattières

Aktuelles Wetter: Nizza (27m)

6-stündlich | Neueste Meldungen
Ortszeit Temperatur Wetter
Di, 27.10. 19:00 13.8° C fast wolkenlos
Di, 27.10. 13:00 17.4° C fast wolkenlos
Di, 27.10. 7:00 10.4° C fast wolkenlos
Di, 27.10. 1:00 11.4° C wolkenlos
Mo, 26.10. 19:00 14.5° C leicht bewölkt
Mo, 26.10. 13:00 16.0° C leichter Regen
Mo, 26.10. 7:00 18.8° C leichter Regen
Mo, 26.10. 1:00 14.7° C bewölkt
Ortszeit Temperatur Wetter
Di, 27.10. 21:30 12° C -
Di, 27.10. 21:00 12.4° C fast wolkenlos
Di, 27.10. 20:30 13° C -
Di, 27.10. 20:00 12.7° C wolkenlos
Di, 27.10. 19:30 13° C leicht bewölkt
Di, 27.10. 19:00 13.8° C fast wolkenlos
Di, 27.10. 18:30 14° C leicht bewölkt
Di, 27.10. 18:00 16.3° C leicht bewölkt
Ortszeit Relative Feuchte Sichtweite
Di, 27.10. 19:00 70% 50 km
Di, 27.10. 13:00 59% 50 km
Di, 27.10. 7:00 66% 40 km
Di, 27.10. 1:00 77% 40 km
Mo, 26.10. 19:00 85% 40 km
Mo, 26.10. 13:00 85% 40 km
Mo, 26.10. 7:00 91% 9 km
Mo, 26.10. 1:00 90% 20 km
Ortszeit Relative Feuchte Sichtweite
Di, 27.10. 21:30 77% >10 km
Di, 27.10. 21:00 76% 50 km
Di, 27.10. 20:30 72% >10 km
Di, 27.10. 20:00 75% 50 km
Di, 27.10. 19:30 77% >10 km
Di, 27.10. 19:00 70% 50 km
Di, 27.10. 18:30 67% >10 km
Di, 27.10. 18:00 57% 50 km
Ortszeit Niederschlagsmenge Niederschlagsart
Di, 27.10. 19:00 0.0 l/m2 in 12 Std. -
Di, 27.10. 13:00 0.0 l/m2 in 6 Std. -
Di, 27.10. 7:00 0.0 l/m2 in 12 Std. -
Di, 27.10. 1:00 0.0 l/m2 in 6 Std. -
Mo, 26.10. 19:00 4 l/m2 in 12 Std. Regen
Mo, 26.10. 13:00 4 l/m2 in 6 Std. Regen
Mo, 26.10. 7:00 0.6 l/m2 in 12 Std. Regenschauer
Mo, 26.10. 1:00 0.0 l/m2 in 6 Std. -
Ortszeit Niederschlagsmenge Niederschlagsart
Di, 27.10. 21:30 keine Meldung -
Di, 27.10. 21:00 0.0 l/m2 in 1 Std. -
Di, 27.10. 20:30 keine Meldung -
Di, 27.10. 20:00 0.0 l/m2 in 1 Std. -
Di, 27.10. 19:30 keine Meldung -
Di, 27.10. 19:00 keine Meldung -
Di, 27.10. 18:30 keine Meldung -
Di, 27.10. 18:00 0.0 l/m2 in 1 Std. -
Ortszeit Stärke Spitze Richtung
km/h Bft. km/h Grad Sektor
Di, 27.10. 19:00 9 2 13 330° NW
Di, 27.10. 13:00 9 2 15 160° S
Di, 27.10. 7:00 17 3 24 340° N
Di, 27.10. 1:00 9 2 19 280° W
Mo, 26.10. 19:00 2 1 7 350° N
Mo, 26.10. 13:00 17 3 30 230° SW
Mo, 26.10. 7:00 43 6 59 180° S
Mo, 26.10. 1:00 11 2 20 330° NW
Ortszeit Stärke Spitze Richtung
km/h Bft. km/h Grad Sektor
Di, 27.10. 21:30 15 3 - 330° NW
Di, 27.10. 21:00 19 3 24 330° NW
Di, 27.10. 20:30 15 3 - 330° NW
Di, 27.10. 20:00 13 3 17 340° N
Di, 27.10. 19:30 9 2 - 340° N
Di, 27.10. 19:00 9 2 13 330° NW
Di, 27.10. 18:30 11 2 - 20° N
Di, 27.10. 18:00 9 2 13 60° NO
Ortszeit Untergrenze Bedeckung Gattung
total tief tief mittel hoch
Di, 27.10. 19:00 1290 m 2/8 1/8 Sc - Ci
Di, 27.10. 13:00 1290 m 1/8 1/8 Cu - -
Di, 27.10. 7:00 1290 m 1/8 1/8 Sc - -
Di, 27.10. 1:00 - 0/8 0/8 - - -
Mo, 26.10. 19:00 600 m 2/8 2/8 Sc - -
Mo, 26.10. 13:00 450 m 8/8 4/8 Sc Ac -
Mo, 26.10. 7:00 330 m 7/8 5/8 Cu Ac -
Mo, 26.10. 1:00 600 m 8/8 5/8 Sc - Ci
Ortszeit Bedeckungsgrad in Achtel und Wolkenuntergrenze
Di, 27.10. 21:30 keine Wolken(unter 1500 m)
Di, 27.10. 21:00 1(4200m)
Di, 27.10. 20:30 keine Wolken(unter 1500 m)
Di, 27.10. 20:00 keine Wolken
Di, 27.10. 19:30 1-2(1290m)
Di, 27.10. 19:00 1(1290m)
Di, 27.10. 18:30 1-2(1290m)
Di, 27.10. 18:00 1(1290m) 3(7800m)
Ortszeit Luftdruck NN (hPa) Tendenz (hPa in 3 Std.)
Di, 27.10. 19:00 1013 + 2,3
Di, 27.10. 13:00 1010 + 0,7
Di, 27.10. 7:00 1008 + 1,9
Di, 27.10. 1:00 1005 + 0,4
Mo, 26.10. 19:00 1004 + 0,5
Mo, 26.10. 13:00 1005 + 0,3
Mo, 26.10. 7:00 1005 - 3,3
Mo, 26.10. 1:00 1011 - 1,4
Ortszeit Luftdruck NN (hPa) Tendenz (hPa in 3 Std.)
Di, 27.10. 21:30 1014 keine Meldung
Di, 27.10. 21:00 1014 + 2,2
Di, 27.10. 20:30 1013 keine Meldung
Di, 27.10. 20:00 1014 + 2,3
Di, 27.10. 19:30 1013 keine Meldung
Di, 27.10. 19:00 1013 + 2,3
Di, 27.10. 18:30 1012 keine Meldung
Di, 27.10. 18:00 1012 + 1,6
Ortszeit Schneehöhe (cm)
Di, 27.10. 19:00 -
Di, 27.10. 13:00 -
Di, 27.10. 7:00 -
Di, 27.10. 1:00 -
Mo, 26.10. 19:00 -
Mo, 26.10. 13:00 -
Mo, 26.10. 7:00 -
Mo, 26.10. 1:00 -
Ortszeit Schneehöhe (cm)
Di, 27.10. 21:30 -
Di, 27.10. 21:00 -
Di, 27.10. 20:30 -
Di, 27.10. 20:00 -
Di, 27.10. 19:30 -
Di, 27.10. 19:00 -
Di, 27.10. 18:30 -
Di, 27.10. 18:00 -
Link zu dieser Seite / Seite empfehlen

Das Wetter in ...